GORO2: Illinois River, Gore, OK

Data processed at Fri Jul 13 2018 23:34


All information presented herein is the property of the government of the United States of America and may be revised or deleted at any time without prior notice.
Dissemination of this information without the expressed written consent of the Public Affairs Office, Tulsa District U.S. Army Corps of Engineers is strictly prohibited.
These data are gathered electronically and, as presented, have not undergone any form of quality control. These data are not guaranteed to be valid or correct.
Go to home page.
Go to station list.

Upstream stations:

Downstream station:
Previous Day
Next Day
Current Day
    
SHEF ID:       GORO2     Illinois River near Gore, OK
STATION TYPE:  

               PRECIP PRECIP(A)     STAGE  STAGE(2)  RIV-FLOW  WTR-TEMP   DIS-OXY   VOLTAGE  BAT-LOAD
                   in        in        ft        ft       cfs         F      mg/l      volt      volt
              Ccp-Rev   Ccp-Rev   Ccp-Rev   Ccp-Rev   Ccp-Rev   Ccp-Rev   Ccp-Rev   Ccp-Rev   Ccp-Rev
(US/Central)
07/11 00:00      0.00      ----      6.91      9.73       161     60.75      7.20      ----     12.77
07/11 01:00      0.00      ----      6.86      9.72       148     60.78      7.20      ----     12.77
07/11 02:00      0.00      ----      6.84      9.72       143     60.84      7.09      ----     12.71
07/11 03:00      0.00      ----      6.81      9.72       135     60.84      7.01      ----     12.71
07/11 04:00      0.00      ----      6.80      9.72       133     60.71      7.04      ----     12.71
07/11 05:00      0.00      ----      6.79      9.72       130     60.60      7.00      ----     12.71
07/11 06:00      0.00      ----      6.77      9.72       125     60.37      7.21      ----     12.71
07/11 07:00      0.00      ----      6.76      9.72       123     60.22      7.30      ----     12.71
07/11 08:00      0.00      ----      6.76      9.72       123     60.39      7.41      ----     12.71
07/11 09:00      0.00      ----      6.75      9.72       120     61.27      8.39      ----     12.77
07/11 10:00      0.00      ----      6.74      9.72       118     62.89      9.01      ----     12.83
07/11 11:00      0.00      ----      6.74      9.72       118     65.05      9.98      ----     13.00
07/11 12:00      0.00      ----      6.74      9.72       118     67.01     10.44      ----      ----
07/11 13:00      0.00      ----      6.74      9.72       118     68.09     10.42      ----      ----
07/11 14:00      0.00      ----     10.52      9.73      2523     62.31      9.95      ----      ----
07/11 15:00      0.00      ----     11.58      9.73      3914     59.67      7.13      ----      ----
07/11 16:00      0.00      ----     11.72      9.73      4118     59.07      6.91      ----      ----
07/11 17:00      0.00      ----     11.75      9.73      4163     59.18      6.93      ----      ----
07/11 18:00      0.00      ----     11.76      9.73      4178     59.09      6.85      ----      ----
07/11 19:00      0.17      ----      9.89      9.73      1861     59.58      7.04      ----      ----
07/11 20:00      0.00      ----      7.94      9.73       534     59.85      7.40      ----     12.83
07/11 21:00      0.00      ----      7.35      9.73       296     60.17      7.38      ----     12.83
07/11 22:00      0.00      ----      7.11      9.73       216     60.31      7.31      ----     12.77
07/11 23:00      0.00      ----      6.99      9.73       183     60.48      7.25      ----     12.77